sensor_id;sensor_type;location;lat;lon;timestamp;P1;durP1;ratioP1;P2;durP2;ratioP2
18716;SDS011;9487;50.892;6.906;2022-12-18T00:00:41;23.63;;;15.90;;
18716;SDS011;9487;50.892;6.906;2022-12-18T00:03:09;23.57;;;14.67;;
18716;SDS011;9487;50.892;6.906;2022-12-18T00:05:37;22.80;;;14.47;;
18716;SDS011;9487;50.892;6.906;2022-12-18T00:08:11;25.63;;;15.40;;
18716;SDS011;9487;50.892;6.906;2022-12-18T00:10:38;24.90;;;15.53;;
18716;SDS011;9487;50.892;6.906;2022-12-18T00:13:05;23.73;;;14.20;;
18716;SDS011;9487;50.892;6.906;2022-12-18T00:15:32;27.13;;;16.40;;
18716;SDS011;9487;50.892;6.906;2022-12-18T00:17:59;26.50;;;15.37;;
18716;SDS011;9487;50.892;6.906;2022-12-18T00:20:26;25.90;;;15.93;;
18716;SDS011;9487;50.892;6.906;2022-12-18T00:22:54;21.80;;;15.77;;
18716;SDS011;9487;50.892;6.906;2022-12-18T00:25:21;22.50;;;14.33;;
18716;SDS011;9487;50.892;6.906;2022-12-18T00:27:48;26.13;;;15.07;;
18716;SDS011;9487;50.892;6.906;2022-12-18T00:30:15;23.43;;;14.70;;
18716;SDS011;9487;50.892;6.906;2022-12-18T00:32:42;21.90;;;14.53;;
18716;SDS011;9487;50.892;6.906;2022-12-18T00:35:09;22.57;;;14.77;;
18716;SDS011;9487;50.892;6.906;2022-12-18T00:37:36;24.40;;;15.80;;
18716;SDS011;9487;50.892;6.906;2022-12-18T00:40:04;22.00;;;14.97;;
18716;SDS011;9487;50.892;6.906;2022-12-18T00:42:32;26.07;;;15.73;;
18716;SDS011;9487;50.892;6.906;2022-12-18T00:45:16;22.70;;;14.67;;
18716;SDS011;9487;50.892;6.906;2022-12-18T00:47:43;26.00;;;14.67;;
18716;SDS011;9487;50.892;6.906;2022-12-18T00:50:10;24.70;;;15.50;;
18716;SDS011;9487;50.892;6.906;2022-12-18T00:52:37;25.33;;;14.70;;
18716;SDS011;9487;50.892;6.906;2022-12-18T00:55:05;20.93;;;13.73;;
18716;SDS011;9487;50.892;6.906;2022-12-18T00:57:33;24.17;;;14.80;;
18716;SDS011;9487;50.892;6.906;2022-12-18T01:00:00;25.30;;;15.00;;
18716;SDS011;9487;50.892;6.906;2022-12-18T01:02:27;23.97;;;14.73;;
18716;SDS011;9487;50.892;6.906;2022-12-18T01:04:54;25.17;;;14.77;;
18716;SDS011;9487;50.892;6.906;2022-12-18T01:07:20;24.23;;;15.13;;
18716;SDS011;9487;50.892;6.906;2022-12-18T01:09:47;23.40;;;14.90;;
18716;SDS011;9487;50.892;6.906;2022-12-18T01:12:15;27.83;;;15.53;;
18716;SDS011;9487;50.892;6.906;2022-12-18T01:14:42;25.90;;;15.30;;
18716;SDS011;9487;50.892;6.906;2022-12-18T01:17:09;25.90;;;16.10;;
18716;SDS011;9487;50.892;6.906;2022-12-18T01:19:35;24.97;;;16.00;;
18716;SDS011;9487;50.892;6.906;2022-12-18T01:22:02;26.10;;;17.40;;
18716;SDS011;9487;50.892;6.906;2022-12-18T01:24:29;27.10;;;16.27;;
18716;SDS011;9487;50.892;6.906;2022-12-18T01:26:56;24.70;;;16.67;;
18716;SDS011;9487;50.892;6.906;2022-12-18T01:29:24;25.77;;;15.80;;
18716;SDS011;9487;50.892;6.906;2022-12-18T01:31:51;25.87;;;16.93;;
18716;SDS011;9487;50.892;6.906;2022-12-18T01:34:21;26.30;;;16.90;;
18716;SDS011;9487;50.892;6.906;2022-12-18T01:36:48;26.00;;;16.73;;
18716;SDS011;9487;50.892;6.906;2022-12-18T01:39:17;29.57;;;17.20;;
18716;SDS011;9487;50.892;6.906;2022-12-18T01:41:44;26.23;;;17.47;;
18716;SDS011;9487;50.892;6.906;2022-12-18T01:47:25;25.30;;;15.30;;
18716;SDS011;9487;50.892;6.906;2022-12-18T01:49:54;24.67;;;15.57;;
18716;SDS011;9487;50.892;6.906;2022-12-18T01:52:23;22.87;;;15.97;;
18716;SDS011;9487;50.892;6.906;2022-12-18T01:54:51;25.83;;;16.53;;
18716;SDS011;9487;50.892;6.906;2022-12-18T01:57:19;24.27;;;15.97;;
18716;SDS011;9487;50.892;6.906;2022-12-18T01:59:47;25.93;;;16.63;;
18716;SDS011;9487;50.892;6.906;2022-12-18T02:02:19;23.23;;;16.70;;
18716;SDS011;9487;50.892;6.906;2022-12-18T02:04:47;26.37;;;17.63;;
18716;SDS011;9487;50.892;6.906;2022-12-18T02:07:14;26.67;;;17.20;;
18716;SDS011;9487;50.892;6.906;2022-12-18T02:09:50;23.80;;;15.57;;
18716;SDS011;9487;50.892;6.906;2022-12-18T02:12:21;26.30;;;16.47;;
18716;SDS011;9487;50.892;6.906;2022-12-18T02:14:52;25.80;;;16.53;;
18716;SDS011;9487;50.892;6.906;2022-12-18T02:17:28;27.40;;;16.80;;
18716;SDS011;9487;50.892;6.906;2022-12-18T02:20:02;26.17;;;17.17;;
18716;SDS011;9487;50.892;6.906;2022-12-18T02:22:40;25.27;;;16.37;;
18716;SDS011;9487;50.892;6.906;2022-12-18T02:25:21;25.43;;;17.00;;
18716;SDS011;9487;50.892;6.906;2022-12-18T02:27:58;23.53;;;15.87;;
18716;SDS011;9487;50.892;6.906;2022-12-18T02:30:28;27.90;;;17.10;;
18716;SDS011;9487;50.892;6.906;2022-12-18T02:32:59;27.23;;;17.23;;
18716;SDS011;9487;50.892;6.906;2022-12-18T02:35:30;26.47;;;15.10;;
18716;SDS011;9487;50.892;6.906;2022-12-18T02:37:58;22.83;;;15.90;;
18716;SDS011;9487;50.892;6.906;2022-12-18T02:40:26;24.83;;;15.37;;
18716;SDS011;9487;50.892;6.906;2022-12-18T02:42:55;24.43;;;15.27;;
18716;SDS011;9487;50.892;6.906;2022-12-18T02:45:29;23.53;;;16.13;;
18716;SDS011;9487;50.892;6.906;2022-12-18T02:47:56;26.10;;;15.27;;
18716;SDS011;9487;50.892;6.906;2022-12-18T02:50:25;25.40;;;15.87;;
18716;SDS011;9487;50.892;6.906;2022-12-18T02:53:01;25.73;;;16.23;;
18716;SDS011;9487;50.892;6.906;2022-12-18T02:55:37;28.90;;;17.43;;
18716;SDS011;9487;50.892;6.906;2022-12-18T02:58:13;27.27;;;16.43;;
18716;SDS011;9487;50.892;6.906;2022-12-18T03:00:47;24.70;;;15.83;;
18716;SDS011;9487;50.892;6.906;2022-12-18T03:03:19;24.50;;;16.23;;
18716;SDS011;9487;50.892;6.906;2022-12-18T03:05:52;30.37;;;17.83;;
18716;SDS011;9487;50.892;6.906;2022-12-18T03:08:24;26.73;;;17.67;;
18716;SDS011;9487;50.892;6.906;2022-12-18T03:10:55;24.93;;;16.80;;
18716;SDS011;9487;50.892;6.906;2022-12-18T03:13:30;29.23;;;18.03;;
18716;SDS011;9487;50.892;6.906;2022-12-18T03:16:02;27.93;;;17.23;;
18716;SDS011;9487;50.892;6.906;2022-12-18T03:18:33;26.77;;;17.47;;
18716;SDS011;9487;50.892;6.906;2022-12-18T03:21:04;28.57;;;16.50;;
18716;SDS011;9487;50.892;6.906;2022-12-18T03:23:35;25.20;;;15.30;;
18716;SDS011;9487;50.892;6.906;2022-12-18T03:26:07;27.70;;;17.33;;
18716;SDS011;9487;50.892;6.906;2022-12-18T03:28:37;23.83;;;15.57;;
18716;SDS011;9487;50.892;6.906;2022-12-18T03:31:09;24.60;;;16.50;;
18716;SDS011;9487;50.892;6.906;2022-12-18T03:33:38;25.63;;;15.30;;
18716;SDS011;9487;50.892;6.906;2022-12-18T03:36:08;27.30;;;16.40;;
18716;SDS011;9487;50.892;6.906;2022-12-18T03:38:35;25.33;;;16.27;;
18716;SDS011;9487;50.892;6.906;2022-12-18T03:41:03;26.23;;;15.70;;
18716;SDS011;9487;50.892;6.906;2022-12-18T03:43:38;25.97;;;16.63;;
18716;SDS011;9487;50.892;6.906;2022-12-18T03:46:15;25.27;;;15.43;;
18716;SDS011;9487;50.892;6.906;2022-12-18T03:48:51;24.30;;;16.23;;
18716;SDS011;9487;50.892;6.906;2022-12-18T03:51:23;26.37;;;16.47;;
18716;SDS011;9487;50.892;6.906;2022-12-18T03:53:55;23.70;;;15.80;;
18716;SDS011;9487;50.892;6.906;2022-12-18T03:56:25;24.20;;;16.27;;
18716;SDS011;9487;50.892;6.906;2022-12-18T03:58:55;24.57;;;16.83;;
18716;SDS011;9487;50.892;6.906;2022-12-18T04:01:28;25.50;;;16.50;;
18716;SDS011;9487;50.892;6.906;2022-12-18T04:03:58;23.23;;;15.20;;
18716;SDS011;9487;50.892;6.906;2022-12-18T04:06:27;27.47;;;17.30;;
18716;SDS011;9487;50.892;6.906;2022-12-18T04:08:56;24.13;;;15.80;;
18716;SDS011;9487;50.892;6.906;2022-12-18T04:11:23;24.43;;;16.70;;
18716;SDS011;9487;50.892;6.906;2022-12-18T04:13:50;25.63;;;16.40;;
18716;SDS011;9487;50.892;6.906;2022-12-18T04:16:21;22.87;;;16.37;;
18716;SDS011;9487;50.892;6.906;2022-12-18T04:18:49;23.97;;;16.87;;
18716;SDS011;9487;50.892;6.906;2022-12-18T04:21:16;26.43;;;16.80;;
18716;SDS011;9487;50.892;6.906;2022-12-18T04:23:42;27.10;;;17.77;;
18716;SDS011;9487;50.892;6.906;2022-12-18T04:26:09;26.30;;;18.00;;
18716;SDS011;9487;50.892;6.906;2022-12-18T04:28:36;27.53;;;18.50;;
18716;SDS011;9487;50.892;6.906;2022-12-18T04:31:03;27.63;;;18.37;;
18716;SDS011;9487;50.892;6.906;2022-12-18T04:33:30;25.63;;;18.43;;
18716;SDS011;9487;50.892;6.906;2022-12-18T04:35:58;26.87;;;17.53;;
18716;SDS011;9487;50.892;6.906;2022-12-18T04:38:25;26.87;;;17.63;;
18716;SDS011;9487;50.892;6.906;2022-12-18T04:40:52;24.60;;;16.03;;
18716;SDS011;9487;50.892;6.906;2022-12-18T04:43:18;28.17;;;16.90;;
18716;SDS011;9487;50.892;6.906;2022-12-18T04:45:45;27.37;;;17.53;;
18716;SDS011;9487;50.892;6.906;2022-12-18T04:48:12;27.10;;;17.40;;
18716;SDS011;9487;50.892;6.906;2022-12-18T04:50:39;26.53;;;17.20;;
18716;SDS011;9487;50.892;6.906;2022-12-18T04:53:07;25.63;;;17.67;;
18716;SDS011;9487;50.892;6.906;2022-12-18T04:55:34;27.07;;;17.27;;
18716;SDS011;9487;50.892;6.906;2022-12-18T04:58:00;28.80;;;17.30;;
18716;SDS011;9487;50.892;6.906;2022-12-18T05:00:27;27.10;;;16.80;;
18716;SDS011;9487;50.892;6.906;2022-12-18T05:02:54;26.33;;;17.63;;
18716;SDS011;9487;50.892;6.906;2022-12-18T05:05:21;29.57;;;18.27;;
18716;SDS011;9487;50.892;6.906;2022-12-18T05:07:47;24.87;;;16.90;;
18716;SDS011;9487;50.892;6.906;2022-12-18T05:10:16;26.50;;;17.00;;
18716;SDS011;9487;50.892;6.906;2022-12-18T05:12:43;29.57;;;17.27;;
18716;SDS011;9487;50.892;6.906;2022-12-18T05:15:24;26.60;;;16.93;;
18716;SDS011;9487;50.892;6.906;2022-12-18T05:17:52;29.23;;;17.57;;
18716;SDS011;9487;50.892;6.906;2022-12-18T05:20:19;28.40;;;17.63;;
18716;SDS011;9487;50.892;6.906;2022-12-18T05:22:46;30.30;;;18.97;;
18716;SDS011;9487;50.892;6.906;2022-12-18T05:25:13;28.83;;;18.23;;
18716;SDS011;9487;50.892;6.906;2022-12-18T05:27:41;31.27;;;18.50;;
18716;SDS011;9487;50.892;6.906;2022-12-18T05:30:08;28.90;;;18.93;;
18716;SDS011;9487;50.892;6.906;2022-12-18T05:32:36;32.10;;;19.00;;
18716;SDS011;9487;50.892;6.906;2022-12-18T05:35:03;32.83;;;20.63;;
18716;SDS011;9487;50.892;6.906;2022-12-18T05:37:31;31.03;;;19.80;;
18716;SDS011;9487;50.892;6.906;2022-12-18T05:39:58;30.80;;;20.13;;
18716;SDS011;9487;50.892;6.906;2022-12-18T05:42:25;28.67;;;17.80;;
18716;SDS011;9487;50.892;6.906;2022-12-18T05:44:53;27.90;;;17.83;;
18716;SDS011;9487;50.892;6.906;2022-12-18T05:47:20;30.40;;;18.63;;
18716;SDS011;9487;50.892;6.906;2022-12-18T05:49:47;29.03;;;17.80;;
18716;SDS011;9487;50.892;6.906;2022-12-18T05:52:14;29.47;;;18.20;;
18716;SDS011;9487;50.892;6.906;2022-12-18T05:54:41;28.63;;;17.67;;
18716;SDS011;9487;50.892;6.906;2022-12-18T05:57:07;28.63;;;17.77;;
18716;SDS011;9487;50.892;6.906;2022-12-18T05:59:35;30.07;;;18.87;;
18716;SDS011;9487;50.892;6.906;2022-12-18T06:02:03;30.90;;;18.17;;
18716;SDS011;9487;50.892;6.906;2022-12-18T06:04:30;29.80;;;19.10;;
18716;SDS011;9487;50.892;6.906;2022-12-18T06:06:57;29.90;;;18.80;;
18716;SDS011;9487;50.892;6.906;2022-12-18T06:09:24;33.37;;;19.53;;
18716;SDS011;9487;50.892;6.906;2022-12-18T06:11:51;27.00;;;17.73;;
18716;SDS011;9487;50.892;6.906;2022-12-18T06:14:18;29.53;;;18.87;;
18716;SDS011;9487;50.892;6.906;2022-12-18T06:16:45;31.27;;;18.40;;
18716;SDS011;9487;50.892;6.906;2022-12-18T06:19:15;30.43;;;19.60;;
18716;SDS011;9487;50.892;6.906;2022-12-18T06:21:42;29.63;;;19.80;;
18716;SDS011;9487;50.892;6.906;2022-12-18T06:24:09;32.00;;;19.37;;
18716;SDS011;9487;50.892;6.906;2022-12-18T06:26:36;32.07;;;19.03;;
18716;SDS011;9487;50.892;6.906;2022-12-18T06:29:04;29.43;;;18.47;;
18716;SDS011;9487;50.892;6.906;2022-12-18T06:31:31;29.80;;;18.33;;
18716;SDS011;9487;50.892;6.906;2022-12-18T06:33:57;31.23;;;19.80;;
18716;SDS011;9487;50.892;6.906;2022-12-18T06:36:25;33.10;;;20.73;;
18716;SDS011;9487;50.892;6.906;2022-12-18T06:38:55;31.80;;;19.20;;
18716;SDS011;9487;50.892;6.906;2022-12-18T06:41:23;31.13;;;19.40;;
18716;SDS011;9487;50.892;6.906;2022-12-18T06:43:50;32.27;;;20.03;;
18716;SDS011;9487;50.892;6.906;2022-12-18T06:46:17;31.50;;;18.80;;
18716;SDS011;9487;50.892;6.906;2022-12-18T06:48:46;30.03;;;18.90;;
18716;SDS011;9487;50.892;6.906;2022-12-18T06:51:15;29.47;;;18.97;;
18716;SDS011;9487;50.892;6.906;2022-12-18T06:53:44;31.70;;;20.30;;
18716;SDS011;9487;50.892;6.906;2022-12-18T06:56:11;31.80;;;20.10;;
18716;SDS011;9487;50.892;6.906;2022-12-18T06:58:38;30.80;;;19.47;;
18716;SDS011;9487;50.892;6.906;2022-12-18T07:01:05;32.50;;;18.93;;
18716;SDS011;9487;50.892;6.906;2022-12-18T07:03:33;33.40;;;19.80;;
18716;SDS011;9487;50.892;6.906;2022-12-18T07:06:01;32.00;;;18.83;;
18716;SDS011;9487;50.892;6.906;2022-12-18T07:08:28;32.73;;;20.07;;
18716;SDS011;9487;50.892;6.906;2022-12-18T07:10:56;30.67;;;19.77;;
18716;SDS011;9487;50.892;6.906;2022-12-18T07:13:24;30.27;;;18.73;;
18716;SDS011;9487;50.892;6.906;2022-12-18T07:15:51;30.80;;;19.17;;
18716;SDS011;9487;50.892;6.906;2022-12-18T07:18:18;35.90;;;19.93;;
18716;SDS011;9487;50.892;6.906;2022-12-18T07:20:45;31.80;;;19.10;;
18716;SDS011;9487;50.892;6.906;2022-12-18T07:23:12;31.07;;;20.03;;
18716;SDS011;9487;50.892;6.906;2022-12-18T07:25:38;30.60;;;19.03;;
18716;SDS011;9487;50.892;6.906;2022-12-18T07:28:07;30.03;;;18.73;;
18716;SDS011;9487;50.892;6.906;2022-12-18T07:30:33;30.83;;;19.50;;
18716;SDS011;9487;50.892;6.906;2022-12-18T07:33:03;30.97;;;18.13;;
18716;SDS011;9487;50.892;6.906;2022-12-18T07:35:30;31.90;;;20.37;;
18716;SDS011;9487;50.892;6.906;2022-12-18T07:37:57;32.40;;;18.87;;
18716;SDS011;9487;50.892;6.906;2022-12-18T07:40:26;28.20;;;18.23;;
18716;SDS011;9487;50.892;6.906;2022-12-18T07:42:53;32.53;;;19.10;;
18716;SDS011;9487;50.892;6.906;2022-12-18T07:45:21;30.23;;;18.43;;
18716;SDS011;9487;50.892;6.906;2022-12-18T07:47:48;31.37;;;19.57;;
18716;SDS011;9487;50.892;6.906;2022-12-18T07:50:15;27.80;;;18.60;;
18716;SDS011;9487;50.892;6.906;2022-12-18T07:52:41;30.00;;;18.80;;
18716;SDS011;9487;50.892;6.906;2022-12-18T07:55:08;26.70;;;16.40;;
18716;SDS011;9487;50.892;6.906;2022-12-18T07:57:35;30.73;;;18.37;;
18716;SDS011;9487;50.892;6.906;2022-12-18T08:00:02;27.33;;;17.87;;
18716;SDS011;9487;50.892;6.906;2022-12-18T08:02:31;29.17;;;17.90;;
18716;SDS011;9487;50.892;6.906;2022-12-18T08:04:58;30.33;;;18.83;;
18716;SDS011;9487;50.892;6.906;2022-12-18T08:07:25;29.83;;;17.47;;
18716;SDS011;9487;50.892;6.906;2022-12-18T08:09:52;29.90;;;17.70;;
18716;SDS011;9487;50.892;6.906;2022-12-18T08:12:18;27.87;;;17.30;;
18716;SDS011;9487;50.892;6.906;2022-12-18T08:14:45;28.97;;;19.27;;
18716;SDS011;9487;50.892;6.906;2022-12-18T08:17:12;33.10;;;20.23;;
18716;SDS011;9487;50.892;6.906;2022-12-18T08:19:40;27.27;;;19.43;;
18716;SDS011;9487;50.892;6.906;2022-12-18T08:22:07;32.23;;;18.97;;
18716;SDS011;9487;50.892;6.906;2022-12-18T08:24:34;31.67;;;19.40;;
18716;SDS011;9487;50.892;6.906;2022-12-18T08:27:00;29.03;;;17.67;;
18716;SDS011;9487;50.892;6.906;2022-12-18T08:29:27;29.67;;;17.83;;
18716;SDS011;9487;50.892;6.906;2022-12-18T08:31:55;28.67;;;18.43;;
18716;SDS011;9487;50.892;6.906;2022-12-18T08:34:22;29.23;;;18.27;;
18716;SDS011;9487;50.892;6.906;2022-12-18T08:36:50;29.27;;;17.87;;
18716;SDS011;9487;50.892;6.906;2022-12-18T08:39:17;27.03;;;17.83;;
18716;SDS011;9487;50.892;6.906;2022-12-18T08:41:44;24.50;;;17.00;;
18716;SDS011;9487;50.892;6.906;2022-12-18T08:44:31;26.53;;;16.93;;
18716;SDS011;9487;50.892;6.906;2022-12-18T08:47:02;28.43;;;18.83;;
18716;SDS011;9487;50.892;6.906;2022-12-18T08:49:30;28.07;;;18.43;;
18716;SDS011;9487;50.892;6.906;2022-12-18T08:51:58;26.77;;;18.23;;
18716;SDS011;9487;50.892;6.906;2022-12-18T08:54:25;29.63;;;18.53;;
18716;SDS011;9487;50.892;6.906;2022-12-18T08:56:52;27.23;;;18.10;;
18716;SDS011;9487;50.892;6.906;2022-12-18T08:59:19;28.67;;;17.60;;
18716;SDS011;9487;50.892;6.906;2022-12-18T09:01:46;29.10;;;18.33;;
18716;SDS011;9487;50.892;6.906;2022-12-18T09:04:13;30.40;;;18.40;;
18716;SDS011;9487;50.892;6.906;2022-12-18T09:06:40;24.53;;;16.60;;
18716;SDS011;9487;50.892;6.906;2022-12-18T09:09:08;27.57;;;17.90;;
18716;SDS011;9487;50.892;6.906;2022-12-18T09:11:36;26.10;;;16.60;;
18716;SDS011;9487;50.892;6.906;2022-12-18T09:14:02;31.03;;;18.83;;
18716;SDS011;9487;50.892;6.906;2022-12-18T09:16:29;28.40;;;17.27;;
18716;SDS011;9487;50.892;6.906;2022-12-18T09:18:59;26.27;;;17.50;;
18716;SDS011;9487;50.892;6.906;2022-12-18T09:21:29;27.80;;;17.87;;
18716;SDS011;9487;50.892;6.906;2022-12-18T09:23:56;30.83;;;18.70;;
18716;SDS011;9487;50.892;6.906;2022-12-18T09:26:25;27.57;;;18.63;;
18716;SDS011;9487;50.892;6.906;2022-12-18T09:28:52;27.20;;;17.57;;
18716;SDS011;9487;50.892;6.906;2022-12-18T09:31:21;30.87;;;18.67;;
18716;SDS011;9487;50.892;6.906;2022-12-18T09:33:49;25.63;;;16.57;;
18716;SDS011;9487;50.892;6.906;2022-12-18T09:36:17;29.93;;;17.20;;
18716;SDS011;9487;50.892;6.906;2022-12-18T09:38:44;29.47;;;18.17;;
18716;SDS011;9487;50.892;6.906;2022-12-18T09:41:17;29.00;;;18.57;;
18716;SDS011;9487;50.892;6.906;2022-12-18T09:44:02;28.67;;;18.13;;
18716;SDS011;9487;50.892;6.906;2022-12-18T09:46:40;28.73;;;18.33;;
18716;SDS011;9487;50.892;6.906;2022-12-18T09:49:12;28.80;;;19.23;;
18716;SDS011;9487;50.892;6.906;2022-12-18T09:51:44;25.10;;;17.27;;
18716;SDS011;9487;50.892;6.906;2022-12-18T09:54:16;25.17;;;17.63;;
18716;SDS011;9487;50.892;6.906;2022-12-18T09:56:47;25.63;;;16.53;;
18716;SDS011;9487;50.892;6.906;2022-12-18T09:59:18;25.27;;;17.50;;
18716;SDS011;9487;50.892;6.906;2022-12-18T10:01:49;27.60;;;17.77;;
18716;SDS011;9487;50.892;6.906;2022-12-18T10:04:16;24.37;;;16.03;;
18716;SDS011;9487;50.892;6.906;2022-12-18T10:06:44;29.73;;;18.03;;
18716;SDS011;9487;50.892;6.906;2022-12-18T10:09:21;25.60;;;16.73;;
18716;SDS011;9487;50.892;6.906;2022-12-18T10:11:58;25.17;;;16.47;;
18716;SDS011;9487;50.892;6.906;2022-12-18T10:14:36;27.80;;;17.90;;
18716;SDS011;9487;50.892;6.906;2022-12-18T10:17:12;26.23;;;16.37;;
18716;SDS011;9487;50.892;6.906;2022-12-18T10:19:47;25.87;;;17.67;;
18716;SDS011;9487;50.892;6.906;2022-12-18T10:22:22;25.83;;;16.93;;
18716;SDS011;9487;50.892;6.906;2022-12-18T10:24:55;23.10;;;16.27;;
18716;SDS011;9487;50.892;6.906;2022-12-18T10:27:27;24.83;;;15.13;;
18716;SDS011;9487;50.892;6.906;2022-12-18T10:29:56;25.13;;;16.87;;
18716;SDS011;9487;50.892;6.906;2022-12-18T10:32:24;23.30;;;15.27;;
18716;SDS011;9487;50.892;6.906;2022-12-18T10:34:53;30.10;;;16.60;;
18716;SDS011;9487;50.892;6.906;2022-12-18T10:37:22;26.00;;;15.57;;
18716;SDS011;9487;50.892;6.906;2022-12-18T10:40:04;23.80;;;14.87;;
18716;SDS011;9487;50.892;6.906;2022-12-18T10:42:34;24.33;;;15.17;;
18716;SDS011;9487;50.892;6.906;2022-12-18T10:45:05;21.63;;;15.00;;
18716;SDS011;9487;50.892;6.906;2022-12-18T10:47:41;23.87;;;15.23;;
18716;SDS011;9487;50.892;6.906;2022-12-18T10:50:16;26.40;;;15.10;;
18716;SDS011;9487;50.892;6.906;2022-12-18T10:52:52;25.03;;;16.07;;
18716;SDS011;9487;50.892;6.906;2022-12-18T10:55:24;23.87;;;15.37;;
18716;SDS011;9487;50.892;6.906;2022-12-18T10:58:01;24.73;;;15.00;;
18716;SDS011;9487;50.892;6.906;2022-12-18T11:00:44;22.57;;;14.80;;
18716;SDS011;9487;50.892;6.906;2022-12-18T11:06:04;26.60;;;15.80;;
18716;SDS011;9487;50.892;6.906;2022-12-18T11:08:33;22.40;;;15.20;;
18716;SDS011;9487;50.892;6.906;2022-12-18T11:11:00;23.20;;;15.10;;
18716;SDS011;9487;50.892;6.906;2022-12-18T11:13:29;27.60;;;17.20;;
18716;SDS011;9487;50.892;6.906;2022-12-18T11:15:58;24.40;;;15.23;;
18716;SDS011;9487;50.892;6.906;2022-12-18T11:18:29;25.17;;;15.80;;
18716;SDS011;9487;50.892;6.906;2022-12-18T11:20:59;23.60;;;15.00;;
18716;SDS011;9487;50.892;6.906;2022-12-18T11:23:34;24.90;;;16.83;;
18716;SDS011;9487;50.892;6.906;2022-12-18T11:26:03;25.10;;;16.10;;
18716;SDS011;9487;50.892;6.906;2022-12-18T11:28:37;25.77;;;15.73;;
18716;SDS011;9487;50.892;6.906;2022-12-18T11:31:22;24.90;;;15.40;;
18716;SDS011;9487;50.892;6.906;2022-12-18T11:33:59;23.50;;;15.37;;
18716;SDS011;9487;50.892;6.906;2022-12-18T11:36:30;23.77;;;15.90;;
18716;SDS011;9487;50.892;6.906;2022-12-18T11:39:00;26.20;;;16.20;;
18716;SDS011;9487;50.892;6.906;2022-12-18T11:41:37;23.07;;;15.50;;
18716;SDS011;9487;50.892;6.906;2022-12-18T11:44:29;25.03;;;15.87;;
18716;SDS011;9487;50.892;6.906;2022-12-18T11:47:03;25.13;;;16.83;;
18716;SDS011;9487;50.892;6.906;2022-12-18T11:49:36;23.87;;;16.70;;
18716;SDS011;9487;50.892;6.906;2022-12-18T11:52:04;24.27;;;15.50;;
18716;SDS011;9487;50.892;6.906;2022-12-18T11:54:36;23.80;;;16.13;;
18716;SDS011;9487;50.892;6.906;2022-12-18T11:57:05;24.60;;;15.73;;
18716;SDS011;9487;50.892;6.906;2022-12-18T11:59:37;26.83;;;16.30;;
18716;SDS011;9487;50.892;6.906;2022-12-18T12:02:20;26.07;;;17.07;;
18716;SDS011;9487;50.892;6.906;2022-12-18T12:05:00;26.33;;;16.83;;
18716;SDS011;9487;50.892;6.906;2022-12-18T12:07:38;24.83;;;17.10;;
18716;SDS011;9487;50.892;6.906;2022-12-18T12:10:17;25.10;;;17.47;;
18716;SDS011;9487;50.892;6.906;2022-12-18T12:12:55;25.97;;;17.67;;
18716;SDS011;9487;50.892;6.906;2022-12-18T12:15:39;26.63;;;15.93;;
18716;SDS011;9487;50.892;6.906;2022-12-18T12:18:16;28.20;;;18.80;;
18716;SDS011;9487;50.892;6.906;2022-12-18T12:20:51;26.43;;;17.37;;
18716;SDS011;9487;50.892;6.906;2022-12-18T12:23:26;28.43;;;17.67;;
18716;SDS011;9487;50.892;6.906;2022-12-18T12:26:03;29.17;;;19.17;;
18716;SDS011;9487;50.892;6.906;2022-12-18T12:31:33;26.90;;;16.87;;
18716;SDS011;9487;50.892;6.906;2022-12-18T12:34:21;28.10;;;18.43;;
18716;SDS011;9487;50.892;6.906;2022-12-18T12:37:01;26.83;;;16.57;;
18716;SDS011;9487;50.892;6.906;2022-12-18T12:39:36;27.83;;;18.00;;
18716;SDS011;9487;50.892;6.906;2022-12-18T12:42:05;27.70;;;17.73;;
18716;SDS011;9487;50.892;6.906;2022-12-18T12:44:56;28.87;;;17.90;;
18716;SDS011;9487;50.892;6.906;2022-12-18T12:47:28;28.10;;;18.73;;
18716;SDS011;9487;50.892;6.906;2022-12-18T12:50:02;27.07;;;17.67;;
18716;SDS011;9487;50.892;6.906;2022-12-18T12:52:32;28.73;;;18.23;;
18716;SDS011;9487;50.892;6.906;2022-12-18T12:55:04;30.30;;;17.23;;
18716;SDS011;9487;50.892;6.906;2022-12-18T12:57:40;25.40;;;17.50;;
18716;SDS011;9487;50.892;6.906;2022-12-18T13:00:13;29.17;;;18.47;;
18716;SDS011;9487;50.892;6.906;2022-12-18T13:02:42;28.10;;;17.60;;
18716;SDS011;9487;50.892;6.906;2022-12-18T13:05:16;26.77;;;17.50;;
18716;SDS011;9487;50.892;6.906;2022-12-18T13:07:50;27.20;;;18.13;;
18716;SDS011;9487;50.892;6.906;2022-12-18T13:10:24;26.53;;;18.37;;
18716;SDS011;9487;50.892;6.906;2022-12-18T13:12:57;24.87;;;17.73;;
18716;SDS011;9487;50.892;6.906;2022-12-18T13:15:26;27.67;;;17.30;;
18716;SDS011;9487;50.892;6.906;2022-12-18T13:18:03;28.93;;;18.57;;
18716;SDS011;9487;50.892;6.906;2022-12-18T13:20:34;28.87;;;18.77;;
18716;SDS011;9487;50.892;6.906;2022-12-18T13:23:17;29.23;;;18.13;;
18716;SDS011;9487;50.892;6.906;2022-12-18T13:25:51;28.97;;;18.70;;
18716;SDS011;9487;50.892;6.906;2022-12-18T13:28:20;27.40;;;17.93;;
18716;SDS011;9487;50.892;6.906;2022-12-18T13:30:50;28.43;;;18.50;;
18716;SDS011;9487;50.892;6.906;2022-12-18T13:36:30;28.27;;;18.70;;
18716;SDS011;9487;50.892;6.906;2022-12-18T13:45:36;30.67;;;18.87;;
18716;SDS011;9487;50.892;6.906;2022-12-18T13:48:16;29.73;;;18.67;;
18716;SDS011;9487;50.892;6.906;2022-12-18T13:50:57;28.73;;;18.57;;
18716;SDS011;9487;50.892;6.906;2022-12-18T13:53:29;27.17;;;18.67;;
18716;SDS011;9487;50.892;6.906;2022-12-18T13:56:00;30.27;;;19.17;;
18716;SDS011;9487;50.892;6.906;2022-12-18T13:58:27;30.77;;;18.93;;
18716;SDS011;9487;50.892;6.906;2022-12-18T14:00:54;31.40;;;19.37;;
18716;SDS011;9487;50.892;6.906;2022-12-18T14:03:22;27.27;;;18.87;;
18716;SDS011;9487;50.892;6.906;2022-12-18T14:05:52;28.40;;;19.03;;
18716;SDS011;9487;50.892;6.906;2022-12-18T14:08:22;31.90;;;19.53;;
18716;SDS011;9487;50.892;6.906;2022-12-18T14:10:54;29.97;;;19.47;;
18716;SDS011;9487;50.892;6.906;2022-12-18T14:13:23;28.87;;;18.83;;
18716;SDS011;9487;50.892;6.906;2022-12-18T14:15:54;32.30;;;20.03;;
18716;SDS011;9487;50.892;6.906;2022-12-18T14:18:23;29.10;;;18.60;;
18716;SDS011;9487;50.892;6.906;2022-12-18T14:20:52;30.53;;;20.20;;
18716;SDS011;9487;50.892;6.906;2022-12-18T14:23:28;28.67;;;19.03;;
18716;SDS011;9487;50.892;6.906;2022-12-18T14:26:00;29.43;;;19.30;;
18716;SDS011;9487;50.892;6.906;2022-12-18T14:28:28;30.67;;;19.80;;
18716;SDS011;9487;50.892;6.906;2022-12-18T14:30:56;33.60;;;20.30;;
18716;SDS011;9487;50.892;6.906;2022-12-18T14:33:23;32.50;;;20.97;;
18716;SDS011;9487;50.892;6.906;2022-12-18T14:35:55;29.97;;;19.97;;
18716;SDS011;9487;50.892;6.906;2022-12-18T14:38:25;32.83;;;21.23;;
18716;SDS011;9487;50.892;6.906;2022-12-18T14:40:54;29.43;;;18.83;;
18716;SDS011;9487;50.892;6.906;2022-12-18T14:43:27;30.67;;;20.30;;
18716;SDS011;9487;50.892;6.906;2022-12-18T14:45:55;32.60;;;20.83;;
18716;SDS011;9487;50.892;6.906;2022-12-18T14:48:24;31.30;;;19.07;;
18716;SDS011;9487;50.892;6.906;2022-12-18T14:51:02;32.53;;;20.57;;
18716;SDS011;9487;50.892;6.906;2022-12-18T14:53:33;29.07;;;18.63;;
18716;SDS011;9487;50.892;6.906;2022-12-18T14:56:02;33.70;;;20.40;;
18716;SDS011;9487;50.892;6.906;2022-12-18T14:58:31;32.33;;;20.23;;
18716;SDS011;9487;50.892;6.906;2022-12-18T15:00:58;30.57;;;20.17;;
18716;SDS011;9487;50.892;6.906;2022-12-18T15:03:25;34.07;;;20.50;;
18716;SDS011;9487;50.892;6.906;2022-12-18T15:05:51;31.80;;;19.47;;
18716;SDS011;9487;50.892;6.906;2022-12-18T15:08:29;31.53;;;20.23;;